Time;durP1;ratioP1;P1;durP2;ratioP2;P2;SDS_P1;SDS_P2;PMS_P1;PMS_P2;Temp;Humidity;BMP_temperature;BMP_pressure;BME280_temperature;BME280_humidity;BME280_pressure;Samples;Min_cycle;Max_cycle;Signal;HPM_P1;HPM_P2
2022/08/22 00:01:14;;;;;;;2.10;1.20;;;21.20;60.20;;;;;;4959949;28;20038;-76
2022/08/22 00:04:13;;;;;;;3.05;1.52;;;21.20;61.90;;;;;;4919885;28;20026;-76
2022/08/22 00:07:10;;;;;;;4.70;1.50;;;21.20;62.00;;;;;;4965584;28;20506;-76
2022/08/22 00:09:58;;;;;;;2.85;1.50;;;21.20;61.60;;;;;;4920491;28;20043;-76
2022/08/22 00:12:39;;;;;;;2.65;1.50;;;21.20;61.60;;;;;;4971256;28;20050;-77
2022/08/22 00:15:12;;;;;;;4.20;1.53;;;21.10;61.40;;;;;;4955226;28;20054;-76
2022/08/22 00:17:53;;;;;;;3.50;1.50;;;21.10;61.10;;;;;;4943442;28;20302;-76
2022/08/22 00:20:28;;;;;;;3.53;1.30;;;21.10;61.90;;;;;;4961112;28;20033;-76
2022/08/22 00:23:34;;;;;;;3.47;1.40;;;21.00;61.80;;;;;;4962421;28;20233;-76
2022/08/22 00:26:13;;;;;;;3.03;1.52;;;21.00;62.70;;;;;;4929243;28;20185;-76
2022/08/22 00:29:00;;;;;;;2.53;1.40;;;20.90;61.30;;;;;;4921083;28;1142210;-76
2022/08/22 00:31:32;;;;;;;2.95;1.65;;;20.90;62.90;;;;;;4952181;28;20030;-77
2022/08/22 00:34:07;;;;;;;4.03;1.48;;;20.90;61.90;;;;;;4961425;28;20565;-77
2022/08/22 00:37:04;;;;;;;1.93;1.30;;;20.90;62.70;;;;;;4957182;28;20022;-77
2022/08/22 00:39:52;;;;;;;2.17;1.15;;;20.80;63.40;;;;;;4946304;28;20037;-77
2022/08/22 00:42:36;;;;;;;2.58;1.50;;;20.80;63.20;;;;;;4967194;28;20038;-76
2022/08/22 00:45:32;;;;;;;2.72;1.30;;;20.80;63.50;;;;;;4951707;28;20136;-76
2022/08/22 00:48:03;;;;;;;3.80;1.30;;;20.70;63.60;;;;;;4946717;28;20135;-76
2022/08/22 00:50:29;;;;;;;3.13;1.30;;;20.70;62.40;;;;;;4973257;28;20034;-76
2022/08/22 00:53:16;;;;;;;2.40;1.23;;;20.70;62.10;;;;;;4980570;28;20015;-77
2022/08/22 00:56:20;;;;;;;2.85;1.50;;;20.60;63.90;;;;;;4942810;28;20041;-77
2022/08/22 00:59:14;;;;;;;2.87;1.23;;;20.60;63.90;;;;;;4950788;28;20606;-76
2022/08/22 01:02:14;;;;;;;3.30;1.25;;;20.50;62.60;;;;;;4977358;28;20034;-76
2022/08/22 01:04:57;;;;;;;3.42;1.40;;;20.50;64.20;;;;;;4936790;28;20093;-76
2022/08/22 01:07:34;;;;;;;2.28;1.13;;;20.50;63.70;;;;;;4951288;28;20440;-77
2022/08/22 01:10:15;;;;;;;3.47;1.40;;;20.40;63.80;;;;;;4963641;28;20257;-77
2022/08/22 01:12:59;;;;;;;2.67;1.17;;;20.30;65.00;;;;;;4944620;28;20601;-76
2022/08/22 01:15:29;;;;;;;2.22;1.20;;;20.30;64.50;;;;;;4954084;28;20058;-77
2022/08/22 01:18:22;;;;;;;2.00;1.30;;;20.20;63.90;;;;;;4977943;28;20026;-76
2022/08/22 01:21:10;;;;;;;2.08;1.17;;;20.10;64.10;;;;;;4963950;28;20058;-76
2022/08/22 01:24:06;;;;;;;1.70;1.10;;;20.00;63.50;;;;;;4965292;28;20042;-76
2022/08/22 01:27:06;;;;;;;3.43;1.33;;;20.00;65.10;;;;;;4953719;28;20483;-77
2022/08/22 01:29:53;;;;;;;2.13;1.10;;;20.00;65.40;;;;;;4981358;28;20431;-77
2022/08/22 01:32:47;;;;;;;3.67;1.48;;;19.90;64.50;;;;;;4964370;28;20323;-76
2022/08/22 01:35:22;;;;;;;2.85;1.38;;;19.80;64.90;;;;;;4971441;28;20030;-76
2022/08/22 01:38:13;;;;;;;3.67;1.40;;;19.80;64.70;;;;;;4963204;28;20026;-77
2022/08/22 01:40:51;;;;;;;5.20;1.53;;;19.80;65.70;;;;;;4975585;28;20080;-77
2022/08/22 01:44:16;;;;;;;3.38;1.40;;;19.70;65.50;;;;;;4956023;28;20085;-77
2022/08/22 01:46:55;;;;;;;3.38;1.40;;;19.70;66.30;;;;;;4892728;29;20032;-77
2022/08/22 01:49:53;;;;;;;2.53;1.35;;;19.70;64.10;;;;;;4966859;28;20549;-77
2022/08/22 01:52:40;;;;;;;2.22;1.30;;;19.60;65.80;;;;;;4973293;28;20026;-77
2022/08/22 01:55:11;;;;;;;2.10;1.30;;;19.70;66.30;;;;;;4972634;28;20129;-76
2022/08/22 01:58:26;;;;;;;2.38;1.30;;;19.60;65.00;;;;;;4959715;28;20415;-76
2022/08/22 02:01:25;;;;;;;2.78;1.30;;;19.60;66.50;;;;;;4936870;28;20034;-76
2022/08/22 02:04:04;;;;;;;2.85;1.30;;;19.60;66.70;;;;;;4982608;28;20038;-76
2022/08/22 02:06:48;;;;;;;2.58;1.40;;;19.50;65.50;;;;;;4984668;28;20034;-77
2022/08/22 02:10:02;;;;;;;2.60;1.43;;;19.50;66.50;;;;;;4983449;28;20022;-77
2022/08/22 02:12:36;;;;;;;3.05;1.42;;;19.50;67.30;;;;;;4962177;28;20042;-77
2022/08/22 02:15:17;;;;;;;3.85;1.65;;;19.50;66.30;;;;;;4951864;28;20264;-77
2022/08/22 02:17:49;;;;;;;1.90;1.13;;;19.50;66.50;;;;;;4969533;28;20030;-76
2022/08/22 02:20:27;;;;;;;2.30;1.42;;;19.50;66.20;;;;;;4943815;28;20090;-77
2022/08/22 02:23:17;;;;;;;2.07;1.20;;;19.50;66.00;;;;;;4950040;28;20088;-77
2022/08/22 02:25:52;;;;;;;1.83;1.25;;;19.50;66.10;;;;;;4942958;28;20096;-77
2022/08/22 02:28:59;;;;;;;2.15;1.25;;;19.50;66.70;;;;;;4951596;28;20062;-76
2022/08/22 02:32:07;;;;;;;2.50;1.40;;;19.50;68.20;;;;;;4965384;28;20047;-76
2022/08/22 02:34:37;;;;;;;3.78;1.40;;;19.50;67.70;;;;;;4943049;28;20100;-77
2022/08/22 02:37:32;;;;;;;3.60;1.40;;;19.50;65.70;;;;;;4957322;28;20550;-77
2022/08/22 02:40:04;;;;;;;3.35;1.40;;;19.50;67.70;;;;;;4974604;28;20439;-77
2022/08/22 02:42:52;;;;;;;2.38;1.50;;;19.50;66.80;;;;;;4977853;28;20033;-77
2022/08/22 02:45:21;;;;;;;3.05;1.40;;;19.40;66.60;;;;;;4963608;28;20109;-77
2022/08/22 02:47:59;;;;;;;1.95;1.40;;;19.40;66.20;;;;;;4979770;28;20550;-77
2022/08/22 02:50:42;;;;;;;2.70;1.40;;;19.40;67.70;;;;;;4979917;28;20106;-76
2022/08/22 02:53:11;;;;;;;4.18;1.58;;;19.40;68.10;;;;;;4962603;28;20472;-77
2022/08/22 02:56:05;;;;;;;2.95;1.55;;;19.40;67.80;;;;;;4972808;28;20038;-76
2022/08/22 02:58:58;;;;;;;3.60;1.50;;;19.40;68.60;;;;;;4984437;28;20038;-77
2022/08/22 03:01:28;;;;;;;3.45;1.60;;;19.40;68.00;;;;;;4946499;28;20077;-76
2022/08/22 03:04:20;;;;;;;5.10;1.97;;;19.50;67.40;;;;;;4963401;28;20638;-77
2022/08/22 03:07:04;;;;;;;3.67;1.60;;;19.50;69.00;;;;;;4962367;28;20034;-77
2022/08/22 03:09:57;;;;;;;3.10;1.60;;;19.50;68.80;;;;;;4973732;28;20105;-77
2022/08/22 03:13:06;;;;;;;3.95;1.90;;;19.50;67.80;;;;;;4957145;28;20137;-77
2022/08/22 03:15:35;;;;;;;3.83;1.63;;;19.50;69.00;;;;;;4975915;28;20029;-77
2022/08/22 03:18:13;;;;;;;4.70;1.73;;;19.50;67.30;;;;;;4951702;28;20220;-77
2022/08/22 03:20:52;;;;;;;2.55;1.65;;;19.50;68.80;;;;;;4962658;28;20026;-76
2022/08/22 03:23:32;;;;;;;3.83;1.70;;;19.50;68.30;;;;;;4961106;28;20450;-76
2022/08/22 03:26:17;;;;;;;2.83;1.58;;;19.50;68.60;;;;;;4965095;28;20034;-77
2022/08/22 03:28:50;;;;;;;2.33;1.45;;;19.60;69.00;;;;;;4957662;28;20046;-77
2022/08/22 03:31:22;;;;;;;2.40;1.37;;;19.50;68.10;;;;;;4944219;28;20049;-79
2022/08/22 03:34:15;;;;;;;2.22;1.55;;;19.50;68.00;;;;;;4977313;28;20022;-76
2022/08/22 03:37:19;;;;;;;3.92;1.65;;;19.60;69.50;;;;;;4975983;28;20117;-77
2022/08/22 03:40:03;;;;;;;2.72;1.60;;;19.60;68.50;;;;;;4954791;28;20034;-77
2022/08/22 03:42:53;;;;;;;2.55;1.70;;;19.60;67.70;;;;;;4976826;28;20035;-77
2022/08/22 03:46:07;;;;;;;2.87;1.50;;;19.60;68.80;;;;;;4978519;28;20030;-78
2022/08/22 03:48:50;;;;;;;2.72;1.40;;;19.60;70.00;;;;;;4958208;28;20042;-79
2022/08/22 03:51:19;;;;;;;4.38;1.85;;;19.60;69.20;;;;;;4986411;28;20030;-78
2022/08/22 03:53:44;;;;;;;3.05;1.60;;;19.60;68.50;;;;;;4954963;28;20054;-78
2022/08/22 03:56:16;;;;;;;3.97;1.50;;;19.60;68.10;;;;;;4962248;28;20042;-79
2022/08/22 03:58:44;;;;;;;4.05;1.50;;;19.60;69.00;;;;;;4950657;28;20490;-76
2022/08/22 04:01:20;;;;;;;3.90;1.50;;;19.60;68.20;;;;;;4962774;28;21020;-78
2022/08/22 04:04:07;;;;;;;4.20;1.83;;;19.60;69.50;;;;;;4980414;28;20062;-78
2022/08/22 04:06:48;;;;;;;2.53;1.63;;;19.60;69.60;;;;;;4980430;28;20022;-79
2022/08/22 04:09:38;;;;;;;3.90;1.88;;;19.60;68.90;;;;;;4974592;28;20034;-78
2022/08/22 04:12:25;;;;;;;3.95;1.63;;;19.60;69.20;;;;;;4982901;28;20026;-79
2022/08/22 04:15:10;;;;;;;3.53;1.90;;;19.60;69.90;;;;;;4944815;28;20030;-78
2022/08/22 04:17:52;;;;;;;2.90;1.90;;;19.60;69.90;;;;;;4958680;28;20243;-78
2022/08/22 04:20:36;;;;;;;4.03;1.80;;;19.60;69.50;;;;;;4976123;28;20058;-79
2022/08/22 04:23:36;;;;;;;3.47;1.75;;;19.60;69.10;;;;;;4973896;28;20038;-78
2022/08/22 04:26:17;;;;;;;3.85;2.00;;;19.60;69.30;;;;;;4965906;28;20519;-78
2022/08/22 04:28:52;;;;;;;5.65;2.35;;;19.60;69.80;;;;;;4958748;28;20078;-78
2022/08/22 04:31:27;;;;;;;4.38;2.30;;;19.60;68.80;;;;;;4985660;28;20030;-78
2022/08/22 04:33:54;;;;;;;3.20;1.90;;;19.60;69.20;;;;;;4957272;28;20023;-78
2022/08/22 04:36:29;;;;;;;3.95;1.90;;;19.60;69.10;;;;;;4968003;28;20377;-79
2022/08/22 04:39:07;;;;;;;3.83;2.30;;;19.60;68.90;;;;;;4956445;28;20299;-79
2022/08/22 04:42:08;;;;;;;4.10;2.00;;;19.60;69.80;;;;;;4971426;28;20050;-78
2022/08/22 04:44:40;;;;;;;4.22;2.15;;;19.60;70.30;;;;;;4919559;28;20557;-78
2022/08/22 04:47:15;;;;;;;4.00;2.10;;;19.60;69.30;;;;;;4968310;28;20058;-78
2022/08/22 04:49:55;;;;;;;3.63;2.20;;;19.60;69.80;;;;;;4969280;28;20275;-79
2022/08/22 04:53:01;;;;;;;3.47;1.90;;;19.60;69.50;;;;;;4965950;28;20454;-79
2022/08/22 04:56:02;;;;;;;3.22;2.03;;;19.60;70.20;;;;;;4978548;28;20122;-79
2022/08/22 04:58:55;;;;;;;3.58;2.25;;;19.60;70.00;;;;;;4944342;28;20088;-79
2022/08/22 05:01:58;;;;;;;3.87;1.87;;;19.60;70.30;;;;;;4949790;28;20022;-79
2022/08/22 05:04:39;;;;;;;3.50;2.17;;;19.60;70.60;;;;;;4927793;28;20313;-79
2022/08/22 05:07:11;;;;;;;3.72;2.03;;;19.60;70.20;;;;;;4954045;28;20053;-79
2022/08/22 05:09:42;;;;;;;3.33;1.90;;;19.60;69.10;;;;;;4966820;28;20696;-79
2022/08/22 05:12:15;;;;;;;2.97;1.80;;;19.60;69.60;;;;;;4956706;28;20507;-79
2022/08/22 05:14:50;;;;;;;4.77;1.90;;;19.60;69.90;;;;;;4967247;28;20518;-78
2022/08/22 05:17:21;;;;;;;3.92;2.13;;;19.60;69.80;;;;;;4976869;28;20018;-78
2022/08/22 05:19:52;;;;;;;6.15;2.30;;;19.60;70.00;;;;;;4943379;28;20026;-78
2022/08/22 05:22:29;;;;;;;5.18;2.05;;;19.60;70.10;;;;;;4985334;28;20030;-79
2022/08/22 05:25:00;;;;;;;3.75;2.10;;;19.60;70.90;;;;;;4942714;28;20137;-78
2022/08/22 05:27:32;;;;;;;4.97;2.07;;;19.60;70.40;;;;;;4961353;28;20038;-78
2022/08/22 05:30:12;;;;;;;4.97;2.20;;;19.60;70.50;;;;;;4949595;28;20260;-79
2022/08/22 05:32:49;;;;;;;4.78;2.40;;;19.60;70.50;;;;;;4951443;28;20503;-79
2022/08/22 05:35:18;;;;;;;4.45;2.20;;;19.70;71.50;;;;;;4926694;28;20397;-79
2022/08/22 05:37:52;;;;;;;3.72;1.95;;;19.70;70.60;;;;;;4957601;28;20023;-79
2022/08/22 05:40:27;;;;;;;5.10;2.60;;;19.70;70.90;;;;;;4911730;28;20506;-78
2022/08/22 05:42:56;;;;;;;3.22;2.10;;;19.80;71.30;;;;;;4953546;28;20073;-79
2022/08/22 05:45:24;;;;;;;3.80;2.22;;;19.80;70.70;;;;;;4950717;28;20081;-79
2022/08/22 05:47:56;;;;;;;4.10;2.10;;;19.80;70.60;;;;;;4935929;28;20070;-78
2022/08/22 05:50:29;;;;;;;3.95;2.20;;;19.80;70.90;;;;;;4950910;28;20015;-79
2022/08/22 05:53:09;;;;;;;4.53;2.40;;;19.80;71.40;;;;;;4962178;28;20022;-78
2022/08/22 05:55:55;;;;;;;4.45;2.45;;;19.90;71.50;;;;;;4928088;28;20053;-78
2022/08/22 05:58:45;;;;;;;4.40;2.28;;;19.90;71.70;;;;;;4945354;28;20042;-78
2022/08/22 06:01:26;;;;;;;3.65;1.90;;;19.90;72.10;;;;;;4965961;28;20038;-78
2022/08/22 06:04:17;;;;;;;5.15;2.35;;;20.00;71.70;;;;;;4955722;28;20110;-78
2022/08/22 06:06:42;;;;;;;4.63;2.20;;;20.00;71.90;;;;;;4942375;28;20433;-79
2022/08/22 06:09:42;;;;;;;4.40;2.17;;;20.00;70.70;;;;;;4930301;28;20035;-78
2022/08/22 06:12:12;;;;;;;4.40;2.00;;;20.10;71.70;;;;;;4918077;28;20487;-79
2022/08/22 06:14:55;;;;;;;5.88;2.28;;;20.00;70.70;;;;;;4927455;28;20035;-79
2022/08/22 06:17:36;;;;;;;3.90;2.03;;;20.10;70.80;;;;;;4958450;28;20019;-79
2022/08/22 06:20:06;;;;;;;4.55;2.30;;;20.10;71.80;;;;;;4947358;28;20035;-79
2022/08/22 06:22:36;;;;;;;5.15;2.40;;;20.10;71.20;;;;;;4934605;28;20476;-78
2022/08/22 06:25:11;;;;;;;5.57;2.20;;;20.20;71.50;;;;;;4938710;28;20042;-78
2022/08/22 06:27:38;;;;;;;3.35;2.00;;;20.20;71.60;;;;;;4967091;28;20074;-79
2022/08/22 06:30:06;;;;;;;4.80;2.30;;;20.20;71.30;;;;;;4962353;28;20026;-79
2022/08/22 06:32:44;;;;;;;5.28;2.40;;;20.20;71.50;;;;;;4956260;28;20117;-79
2022/08/22 06:36:29;;;;;;;2.75;2.08;;;20.30;72.00;;;;;;4968745;28;20106;-79
2022/08/22 06:38:27;;;;;;;3.33;2.08;;;20.30;72.70;;;;;;4961595;28;20022;-79
2022/08/22 06:40:54;;;;;;;5.72;2.10;;;20.30;71.70;;;;;;4939321;28;20515;-78
2022/08/22 06:43:23;;;;;;;3.90;2.20;;;20.40;71.60;;;;;;4955245;28;20567;-79
2022/08/22 06:45:49;;;;;;;3.78;2.10;;;20.40;71.70;;;;;;4967439;28;20035;-78
2022/08/22 06:48:22;;;;;;;4.72;2.80;;;20.40;71.60;;;;;;4966046;28;20511;-78
2022/08/22 06:50:53;;;;;;;4.60;2.33;;;20.50;72.20;;;;;;4972661;28;20026;-78
2022/08/22 06:53:27;;;;;;;5.18;2.45;;;20.50;71.80;;;;;;4956590;28;20044;-79
2022/08/22 06:56:01;;;;;;;3.57;2.33;;;20.50;71.80;;;;;;4963704;28;20546;-78
2022/08/22 06:58:31;;;;;;;5.07;2.28;;;20.60;71.60;;;;;;4966857;28;20026;-79
2022/08/22 07:01:01;;;;;;;5.25;2.47;;;20.60;71.60;;;;;;4943658;28;20102;-78
2022/08/22 07:03:38;;;;;;;6.40;2.40;;;20.60;71.50;;;;;;4969643;28;20061;-79
2022/08/22 07:06:04;;;;;;;4.50;2.45;;;20.70;71.90;;;;;;4940357;28;20586;-78
2022/08/22 07:08:33;;;;;;;3.87;2.17;;;20.60;71.30;;;;;;4943985;28;20043;-79
2022/08/22 07:11:14;;;;;;;5.70;2.38;;;20.70;71.50;;;;;;4965687;28;20023;-79
2022/08/22 07:13:45;;;;;;;8.13;2.50;;;20.70;72.10;;;;;;4959643;28;20106;-78
2022/08/22 07:16:11;;;;;;;4.38;2.33;;;20.80;71.90;;;;;;4953761;28;20031;-76
2022/08/22 07:18:47;;;;;;;4.10;2.25;;;20.80;71.80;;;;;;4968805;28;20026;-77
2022/08/22 07:21:26;;;;;;;4.23;2.30;;;20.90;72.50;;;;;;4951995;28;20189;-77
2022/08/22 07:23:54;;;;;;;6.40;2.63;;;20.90;72.60;;;;;;4928936;28;20038;-77
2022/08/22 07:26:45;;;;;;;6.35;2.50;;;20.90;72.80;;;;;;4962188;28;20648;-77
2022/08/22 07:29:28;;;;;;;4.28;2.25;;;21.00;72.60;;;;;;4959099;28;20076;-77
2022/08/22 07:32:12;;;;;;;5.07;2.72;;;21.10;72.60;;;;;;4969996;28;20034;-77
2022/08/22 07:35:07;;;;;;;5.87;2.63;;;21.20;72.20;;;;;;4972933;28;20034;-77
2022/08/22 07:37:55;;;;;;;5.75;2.60;;;21.20;72.20;;;;;;4964143;28;20023;-76
2022/08/22 07:40:33;;;;;;;6.05;2.60;;;21.30;71.90;;;;;;4952879;28;20160;-77
2022/08/22 07:43:12;;;;;;;4.20;2.50;;;21.30;72.40;;;;;;4940491;28;20030;-76
2022/08/22 07:45:52;;;;;;;4.97;2.60;;;21.40;71.60;;;;;;4971779;28;20030;-77
2022/08/22 07:48:27;;;;;;;4.03;2.23;;;21.50;71.70;;;;;;4969743;28;20550;-76
2022/08/22 07:50:58;;;;;;;5.43;2.30;;;21.50;71.30;;;;;;4972382;28;20030;-77
2022/08/22 07:53:34;;;;;;;5.60;2.50;;;21.60;71.60;;;;;;4940617;28;20023;-77
2022/08/22 07:56:02;;;;;;;4.85;2.38;;;21.70;71.50;;;;;;4966578;28;20589;-77
2022/08/22 07:58:32;;;;;;;4.57;2.40;;;21.70;71.60;;;;;;4952438;28;20022;-77
2022/08/22 08:00:59;;;;;;;4.57;2.33;;;21.80;71.70;;;;;;4931337;28;20030;-77
2022/08/22 08:03:27;;;;;;;4.40;2.45;;;21.90;71.70;;;;;;4980025;28;20026;-77
2022/08/22 08:05:54;;;;;;;3.28;2.35;;;22.00;71.50;;;;;;4959793;28;20480;-77
2022/08/22 08:08:29;;;;;;;4.28;2.40;;;22.10;71.40;;;;;;4962913;28;20045;-77
2022/08/22 08:10:57;;;;;;;4.82;2.50;;;22.20;71.30;;;;;;4938614;28;20034;-76
2022/08/22 08:13:34;;;;;;;4.67;2.73;;;22.30;71.40;;;;;;4975460;28;20031;-77
2022/08/22 08:16:01;;;;;;;6.78;2.80;;;22.40;71.10;;;;;;4960008;28;20010;-77
2022/08/22 08:18:29;;;;;;;3.13;2.42;;;22.50;71.10;;;;;;4982576;28;20428;-77
2022/08/22 08:20:58;;;;;;;5.55;2.55;;;22.60;71.00;;;;;;4980962;28;20380;-77
2022/08/22 08:23:27;;;;;;;3.15;2.17;;;22.70;71.00;;;;;;4939730;28;20106;-77
2022/08/22 08:26:12;;;;;;;5.27;2.40;;;22.80;70.80;;;;;;4949900;28;20050;-76
2022/08/22 08:28:42;;;;;;;4.13;2.50;;;22.90;70.50;;;;;;4979571;28;20050;-77
2022/08/22 08:31:21;;;;;;;5.53;2.63;;;23.00;70.50;;;;;;4960577;28;20038;-77
2022/08/22 08:33:49;;;;;;;4.95;2.75;;;23.00;69.90;;;;;;4983552;28;20018;-77
2022/08/22 08:36:36;;;;;;;5.22;2.75;;;23.20;70.40;;;;;;4978574;28;20339;-77
2022/08/22 08:39:12;;;;;;;4.33;2.53;;;23.30;70.20;;;;;;4960970;28;20353;-77
2022/08/22 08:41:59;;;;;;;5.25;2.50;;;23.50;70.20;;;;;;4952176;28;20217;-76
2022/08/22 08:44:45;;;;;;;4.35;2.58;;;23.60;69.70;;;;;;4975034;28;20027;-77
2022/08/22 08:47:42;;;;;;;4.65;2.50;;;23.70;70.20;;;;;;4961077;28;20042;-77
2022/08/22 08:50:33;;;;;;;4.93;2.38;;;23.90;69.70;;;;;;4968177;28;20225;-77
2022/08/22 08:53:10;;;;;;;4.90;2.30;;;24.10;70.00;;;;;;4965599;28;20027;-77
2022/08/22 08:55:51;;;;;;;4.18;2.33;;;24.30;69.80;;;;;;4951930;28;20089;-77
2022/08/22 08:58:42;;;;;;;4.68;2.38;;;24.50;70.70;;;;;;4952781;28;20592;-77
2022/08/22 09:01:52;;;;;;;3.03;2.17;;;24.70;69.40;;;;;;4941632;28;20034;-77
2022/08/22 09:04:36;;;;;;;3.58;2.47;;;24.90;69.00;;;;;;4968953;28;20031;-77
2022/08/22 09:07:15;;;;;;;3.10;2.30;;;25.20;68.60;;;;;;4960301;28;20125;-77
2022/08/22 09:10:18;;;;;;;3.60;2.25;;;25.40;68.20;;;;;;4953227;28;20050;-76
2022/08/22 09:13:11;;;;;;;4.80;2.38;;;25.60;68.10;;;;;;4942036;28;20031;-77
2022/08/22 09:16:11;;;;;;;3.85;2.40;;;25.90;68.40;;;;;;4977770;28;20076;-77
2022/08/22 09:18:40;;;;;;;4.15;2.10;;;26.10;67.30;;;;;;4977590;28;20022;-77
2022/08/22 09:21:44;;;;;;;3.37;2.10;;;26.40;68.80;;;;;;4951608;28;20536;-77
2022/08/22 09:24:13;;;;;;;4.50;2.38;;;26.70;67.50;;;;;;4962628;28;20069;-77
2022/08/22 09:26:47;;;;;;;3.78;2.10;;;27.00;68.70;;;;;;4938588;28;20342;-77
2022/08/22 09:29:38;;;;;;;4.10;2.30;;;27.40;68.20;;;;;;4965080;28;20043;-76
2022/08/22 09:32:27;;;;;;;3.78;1.98;;;27.60;66.00;;;;;;4955192;28;20034;-77
2022/08/22 09:35:17;;;;;;;5.10;1.93;;;27.90;65.30;;;;;;4990713;28;20030;-77
2022/08/22 09:37:52;;;;;;;4.78;2.17;;;28.10;64.40;;;;;;4951139;28;20513;-76
2022/08/22 09:40:46;;;;;;;4.47;1.92;;;28.20;65.00;;;;;;4967773;28;20295;-77
2022/08/22 09:43:14;;;;;;;3.20;1.90;;;28.20;63.30;;;;;;4958780;28;20081;-77
2022/08/22 09:45:46;;;;;;;3.55;1.92;;;28.20;64.00;;;;;;4967723;28;20018;-76
2022/08/22 09:48:14;;;;;;;3.93;2.03;;;28.30;62.70;;;;;;4959641;28;20403;-76
2022/08/22 09:51:02;;;;;;;3.97;2.10;;;28.50;64.50;;;;;;4979526;28;20527;-76
2022/08/22 09:54:16;;;;;;;4.07;1.90;;;28.70;65.20;;;;;;4981286;28;20085;-77
2022/08/22 09:56:48;;;;;;;3.85;1.80;;;29.20;64.30;;;;;;4954876;28;20053;-76
2022/08/22 09:59:33;;;;;;;2.95;1.90;;;29.70;65.50;;;;;;4940492;28;20038;-77
2022/08/22 10:02:19;;;;;;;4.93;2.03;;;30.20;64.00;;;;;;4916942;28;21478;-77
2022/08/22 10:04:59;;;;;;;5.18;2.22;;;30.60;63.30;;;;;;4975788;28;20822;-77
2022/08/22 10:07:43;;;;;;;3.70;1.88;;;31.20;61.90;;;;;;4964671;28;20114;-77
2022/08/22 10:10:27;;;;;;;3.55;1.90;;;31.70;61.00;;;;;;4976761;28;20034;-77
2022/08/22 10:13:16;;;;;;;3.28;1.85;;;32.30;59.70;;;;;;4934266;28;20048;-77
2022/08/22 10:15:59;;;;;;;3.53;1.83;;;32.70;58.00;;;;;;4946929;28;20026;-76
2022/08/22 10:18:40;;;;;;;2.95;1.90;;;33.10;58.30;;;;;;4961127;28;20495;-77
2022/08/22 10:21:21;;;;;;;3.05;1.73;;;33.40;56.10;;;;;;4980257;28;20435;-78
2022/08/22 10:24:16;;;;;;;3.38;1.60;;;33.70;57.50;;;;;;4980402;28;20373;-77
2022/08/22 10:26:51;;;;;;;3.03;1.80;;;34.00;54.70;;;;;;4979792;28;20502;-77
2022/08/22 10:29:50;;;;;;;2.90;1.60;;;34.20;53.60;;;;;;4972126;28;20081;-77
2022/08/22 10:32:38;;;;;;;2.30;1.83;;;34.40;53.30;;;;;;4978384;28;20069;-77
2022/08/22 10:35:29;;;;;;;3.97;1.85;;;34.60;52.20;;;;;;4957094;28;20026;-77
2022/08/22 10:38:16;;;;;;;3.25;1.85;;;34.70;50.70;;;;;;4982858;28;20029;-76
2022/08/22 10:41:26;;;;;;;3.30;2.00;;;34.80;51.70;;;;;;4974391;28;20027;-76
2022/08/22 10:44:03;;;;;;;3.03;1.73;;;34.90;50.40;;;;;;4946108;28;20026;-77
2022/08/22 10:46:34;;;;;;;2.50;1.98;;;35.00;50.70;;;;;;4935320;28;20426;-77
2022/08/22 10:49:11;;;;;;;4.05;1.70;;;35.10;49.90;;;;;;4940871;28;20256;-76
2022/08/22 10:52:08;;;;;;;3.55;1.80;;;35.20;48.50;;;;;;4954142;28;20106;-77
2022/08/22 10:55:04;;;;;;;3.85;2.58;;;35.30;49.00;;;;;;4954054;28;20561;-77
2022/08/22 10:57:38;;;;;;;3.27;2.20;;;35.30;47.20;;;;;;4980306;28;20026;-77
2022/08/22 11:00:13;;;;;;;2.80;2.10;;;35.40;48.70;;;;;;4977551;28;20672;-77
2022/08/22 11:02:49;;;;;;;3.13;2.08;;;35.50;47.80;;;;;;4944284;28;20034;-77
2022/08/22 11:05:42;;;;;;;6.40;4.30;;;35.60;47.20;;;;;;4947128;28;20121;-77
2022/08/22 11:08:25;;;;;;;5.78;3.88;;;35.80;45.00;;;;;;4980650;28;20307;-77
2022/08/22 11:11:27;;;;;;;4.17;2.60;;;35.90;44.70;;;;;;4976530;28;20550;-77
2022/08/22 11:14:18;;;;;;;4.22;3.00;;;35.80;45.00;;;;;;4859822;29;20592;-77
2022/08/22 11:17:08;;;;;;;5.97;3.20;;;35.60;44.40;;;;;;4934287;28;20030;-76
2022/08/22 11:19:54;;;;;;;6.85;3.60;;;35.50;44.50;;;;;;4945880;28;20065;-77
2022/08/22 11:22:39;;;;;;;6.10;3.45;;;35.40;44.60;;;;;;4949379;28;20034;-77
2022/08/22 11:25:16;;;;;;;4.53;2.70;;;35.40;44.50;;;;;;4983731;28;20100;-76
2022/08/22 11:28:10;;;;;;;3.55;2.20;;;35.50;45.90;;;;;;4981216;28;20129;-77
2022/08/22 11:30:58;;;;;;;5.15;3.00;;;35.70;44.20;;;;;;4932644;28;20035;-76
2022/08/22 11:33:50;;;;;;;5.40;3.40;;;35.90;43.90;;;;;;4948554;28;20029;-77
2022/08/22 11:36:40;;;;;;;4.80;3.33;;;36.10;44.00;;;;;;4968774;28;20023;-77
2022/08/22 11:39:19;;;;;;;4.87;3.20;;;36.30;43.10;;;;;;4964913;28;20669;-76
2022/08/22 11:42:08;;;;;;;5.03;3.28;;;36.60;43.10;;;;;;4967970;28;20538;-76
2022/08/22 11:44:50;;;;;;;4.10;2.80;;;36.80;43.60;;;;;;4970361;28;20161;-77
2022/08/22 11:47:20;;;;;;;3.00;2.30;;;37.20;42.30;;;;;;4956093;28;20033;-77
2022/08/22 11:49:59;;;;;;;4.15;2.60;;;37.50;42.70;;;;;;4969692;28;20495;-76
2022/08/22 11:52:43;;;;;;;4.00;3.13;;;37.70;40.60;;;;;;4975632;28;20053;-77
2022/08/22 11:55:33;;;;;;;3.58;2.22;;;38.00;40.20;;;;;;4972642;28;20039;-77
2022/08/22 11:58:36;;;;;;;4.80;2.50;;;38.10;39.80;;;;;;4976671;28;20138;-76
2022/08/22 12:01:15;;;;;;;4.20;3.35;;;38.20;39.40;;;;;;4935555;28;20132;-76
2022/08/22 12:04:03;;;;;;;5.32;3.78;;;38.20;38.80;;;;;;4950683;28;20034;-77
2022/08/22 12:06:38;;;;;;;3.63;2.67;;;38.20;38.90;;;;;;4965304;28;20420;-77
2022/08/22 12:09:09;;;;;;;4.68;2.22;;;38.20;38.40;;;;;;4946868;28;20049;-77
2022/08/22 12:11:41;;;;;;;3.30;2.30;;;38.20;38.50;;;;;;4964629;28;20156;-76
2022/08/22 12:14:18;;;;;;;2.38;1.95;;;38.10;38.60;;;;;;4976985;28;20054;-77
2022/08/22 12:16:56;;;;;;;2.85;2.03;;;38.00;36.80;;;;;;4936024;28;20026;-76
2022/08/22 12:19:34;;;;;;;3.63;1.90;;;37.80;37.50;;;;;;4962464;28;20439;-77
2022/08/22 12:22:24;;;;;;;2.65;1.27;;;37.60;36.10;;;;;;4966931;28;20038;-77
2022/08/22 12:25:07;;;;;;;3.08;2.03;;;37.30;35.80;;;;;;4968949;28;20241;-77
2022/08/22 12:27:45;;;;;;;2.63;1.85;;;37.10;35.40;;;;;;4966147;28;20054;-77
2022/08/22 12:30:27;;;;;;;2.50;1.92;;;36.90;36.60;;;;;;4961742;28;20153;-77
2022/08/22 12:33:05;;;;;;;4.10;1.70;;;36.70;37.00;;;;;;4940568;28;20038;-77
2022/08/22 12:35:35;;;;;;;2.67;1.63;;;36.60;37.30;;;;;;4970424;28;20336;-76
2022/08/22 12:38:15;;;;;;;2.97;2.00;;;36.50;37.70;;;;;;4934370;28;20061;-76
2022/08/22 12:41:02;;;;;;;3.28;2.10;;;36.40;36.70;;;;;;4951383;28;20031;-77
2022/08/22 12:43:42;;;;;;;3.40;2.22;;;36.30;37.10;;;;;;4952065;28;20038;-77
2022/08/22 12:46:16;;;;;;;3.83;1.90;;;36.30;37.10;;;;;;4966343;28;20438;-76
2022/08/22 12:48:53;;;;;;;2.88;1.90;;;36.30;37.00;;;;;;4952576;28;20137;-77
2022/08/22 12:51:27;;;;;;;3.60;1.70;;;36.40;37.80;;;;;;4983199;28;20042;-76
2022/08/22 12:54:38;;;;;;;2.40;1.60;;;36.30;36.90;;;;;;4977417;28;20081;-77
2022/08/22 12:57:34;;;;;;;2.83;1.88;;;36.40;36.90;;;;;;4927503;28;20123;-77
2022/08/22 13:00:23;;;;;;;2.80;1.63;;;36.30;35.90;;;;;;4959737;28;20094;-77
2022/08/22 13:02:53;;;;;;;2.60;1.63;;;36.30;36.20;;;;;;4973768;28;20882;-77
2022/08/22 13:05:28;;;;;;;2.38;1.88;;;36.30;36.80;;;;;;4949574;28;20034;-76
2022/08/22 13:08:00;;;;;;;3.13;1.67;;;36.30;36.80;;;;;;4976978;28;20637;-77
2022/08/22 13:10:29;;;;;;;2.47;1.65;;;36.50;36.30;;;;;;4965260;28;20030;-77
2022/08/22 13:12:57;;;;;;;3.33;1.70;;;36.70;37.80;;;;;;4976994;28;20034;-76
2022/08/22 13:15:33;;;;;;;3.88;1.65;;;36.90;37.40;;;;;;4966566;28;20109;-77
2022/08/22 13:18:01;;;;;;;3.53;1.90;;;37.00;36.60;;;;;;4984676;28;20379;-76
2022/08/22 13:20:34;;;;;;;2.65;1.77;;;37.20;36.90;;;;;;4937307;28;20559;-76
2022/08/22 13:23:09;;;;;;;2.70;2.03;;;37.40;36.30;;;;;;4949813;28;20054;-77
2022/08/22 13:26:05;;;;;;;2.47;1.70;;;37.50;36.00;;;;;;4975978;28;20069;-77
2022/08/22 13:28:36;;;;;;;3.38;1.88;;;37.70;34.30;;;;;;4970576;28;20042;-77
2022/08/22 13:31:03;;;;;;;3.25;1.80;;;37.60;35.10;;;;;;4953479;28;20022;-77
2022/08/22 13:33:45;;;;;;;2.80;1.70;;;37.50;34.70;;;;;;4963375;28;20029;-77
2022/08/22 13:36:17;;;;;;;2.00;1.40;;;37.40;33.80;;;;;;4956514;28;20245;-77
2022/08/22 13:39:08;;;;;;;2.77;1.50;;;37.20;34.50;;;;;;4946776;28;20720;-77
2022/08/22 13:41:47;;;;;;;2.60;1.33;;;36.90;33.90;;;;;;4960779;28;20371;-76
2022/08/22 13:44:21;;;;;;;2.22;1.58;;;36.70;33.60;;;;;;4960860;28;20058;-77
2022/08/22 13:46:49;;;;;;;1.73;1.48;;;36.50;34.20;;;;;;4954463;28;20484;-77
2022/08/22 13:49:30;;;;;;;2.47;1.80;;;36.30;34.80;;;;;;4972685;28;20768;-76
2022/08/22 13:52:14;;;;;;;3.03;1.43;;;36.20;34.50;;;;;;4960238;28;20404;-76
2022/08/22 13:54:50;;;;;;;2.45;1.20;;;36.10;34.50;;;;;;4962740;28;20034;-76
2022/08/22 13:57:23;;;;;;;2.22;1.40;;;36.10;35.40;;;;;;4958083;28;20021;-77
2022/08/22 14:00:00;;;;;;;3.25;1.63;;;36.10;35.40;;;;;;4972630;28;20034;-76
2022/08/22 14:02:31;;;;;;;2.58;1.50;;;36.20;34.90;;;;;;4966262;28;20172;-76